Airfield :
LOGIN :

Register | Disclaimer

   EN    FR    IT 

 










Legend :    VFR   Marginal VFR   IFR   Intensive IFR   Very Intensive IFR
Visi :
Ceiling :
>= 8 km
>= 3000ft
5 to 8 km
1000 to 3000 ft
1500m to 5 km
500 to 1000 ft
800 to 1500m
200 to 500 ft
< 800m
< 200 ft
Symbols :   Thunderstorms  Fog  Heavy snow  Heavy precipitations  Wind > 20 kt
SIGMETs :     Misc.  Thunderstorms  Icing  Turbulence  Mountain Waves  Volcanic Ashes







- Airport Elevation : 778 ft
- IATA code : BRQ


LKTB - Brno-Turany

CURRENT METAR :
  • 240930Z 30016KT 9999 FEW038 16/06 Q1017 NOSIG

EXPIRED METARs :
  • 240900Z 29013KT 9999 FEW031 16/08 Q1017 NOSIG
  • 240830Z 31014KT 9999 FEW029 16/09 Q1017 NOSIG
  • 240808Z 30013G26KT 9999 FEW025 16/08 Q1017 RMK REG QNH 1013
  • 240800Z 30019KT 9999 FEW025 16/09 Q1017 NOSIG
  • 240739Z 31013G23KT 9999 SCT022 16/11 Q1017 RMK REG QNH 1013
  • 240730Z 31012KT 9999 SCT023 16/12 Q1017 NOSIG
  • 240700Z 30011KT 9999 FEW021 16/13 Q1016 NOSIG

TAF TAF LKTB
Valid from the 24 at 06:00 until the 25 at 12:00 UTC


240500Z 2406/2512 29010KT 9999 SCT040
TEMPO 2406/2512 -SHRA BKN033
BECMG 2418/2421 05005KT
BECMG 2506/2509 29009KT
No reported NOTAMs for that airfield.



MET'MAP, your aeronautical weather chart ! - Copyright ORBIFLY December 2007 - Disclaimer

ORBIFLY MET'MAP TEAM :

Programming & Development : Alexandra Zaïnal
Concept & Development : Baudouin d'Aumeries
Co-Development & Prog : Marc-Olivier Méhu
Technical & hardware support : Manuel Goepfert

Contact : metmap@orbifly.com




SOURCES & CREDITS :

   NOAA